Mount Vernon, KY (40456)

10:25 AM EDT on October 01, 2014 (GMT -0400)
Denny Subdivision | Change Station
CLOSE
Current Station
Personal Weather Station
Location: Mount Vernon, KY
Elevation: 359 m
Nearby Weather Stations

Elev 359 m 37.31 °N, 84.39 °W | Updated 4 seconds ago

Partly Cloudy
Partly Cloudy
19.1 °C
Feels Like 19.1 °C
N
0.0
Wind Variable Wind from South
Gusts 3.2 km/h

Today
High -- | Low -- °C
--% Chance of Precip.
Yesterday
High -- | Low -- °C
Precip. -- mm
7:32 AM 7:20 PM
Waxing Crescent, 48% visible
Pressure 1016 hPa
Visibility 9.7 kilometers
Clouds Clear
Dew Point 16 °C
Humidity 83%
Rainfall 0 mm
Snow Depth Not available.
UV 1 out of 12
Pollen 4.50 out of 12
Air Quality Not available.
Flu Activity Not available.
METAR KLOZ 011253Z AUTO 13003KT 6SM BR CLR 14/12 A3002 RMK AO2 SLP159 T01390122

More Conditions Fewer Conditions

Pressure 1016 hPa
Visibility 9.7 kilometers
Clouds Clear
Dew Point 16 °C
Humidity 83%
Rainfall 0 mm
Snow Depth Not available.
UV 1 out of 12
Pollen 4.50 out of 12
Air Quality Not available.
Flu Activity Not available.
METAR KLOZ 011253Z AUTO 13003KT 6SM BR CLR 14/12 A3002 RMK AO2 SLP159 T01390122

More Conditions Fewer Conditions

10-Day Weather Forecast

Almanac

Astronomy

Oct. 01, 2014 Rise Set
Actual Time 7:32 AM EDT 7:20 PM EDT
Civil Twilight 7:06 AM EDT 7:46 PM EDT
Nautical Twilight 6:36 AM EDT 8:16 PM EDT
Astronomical Twilight 6:06 AM EDT 8:47 PM EDT
Moon 2:27 PM EDT No Moon Set
Length of Visible Light 12h 39m
Length of Day
11h 47m
Tomorrow will be 2m 22s shorter.
Waxing Crescent, 48% of the Moon is Illuminated
Today
Waxing Crescent
Oct 1
First Quarter
Oct 8
Full
Oct 15
Last Quarter
Oct 23
New

Today's Extremes

State Highs State Lows

Community

WunderPhotos

Upload Photos

1,757,956 photos uploaded!

Nearby

Snow Depth

Station Depth Elevation
No new snow has been reported.

Earthquake Activity

City Distance Mag. Time & Date
No recent earthquake activity has been reported nearby.
Minimum magnitude displayed is 2.5.

Coastal Water Temperatures

Place Temperature
No Stations Reporting

Nearby Weather Stations